createdAt,value
2022-12-15T00:01:20.826Z,29.83
2022-12-15T00:03:41.208Z,29.30
2022-12-15T00:06:01.708Z,28.35
2022-12-15T00:08:26.180Z,29.25
2022-12-15T00:10:46.485Z,28.88
2022-12-15T00:13:06.713Z,28.58
2022-12-15T00:15:27.057Z,29.27
2022-12-15T00:17:47.346Z,28.58
2022-12-15T00:20:07.563Z,30.90
2022-12-15T00:22:37.669Z,26.58
2022-12-15T00:25:03.318Z,28.38
2022-12-15T00:27:23.504Z,27.83
2022-12-15T00:29:43.839Z,26.20
2022-12-15T00:32:06.010Z,28.38
2022-12-15T00:34:26.982Z,27.90
2022-12-15T00:36:49.840Z,28.10
2022-12-15T00:39:03.497Z,27.30
2022-12-15T00:41:15.996Z,29.88
2022-12-15T00:43:26.551Z,28.50
2022-12-15T00:45:46.715Z,27.85
2022-12-15T00:47:54.553Z,29.58
2022-12-15T00:50:16.033Z,28.05
2022-12-15T00:52:38.633Z,28.45
2022-12-15T00:54:59.055Z,27.33
2022-12-15T00:57:22.403Z,28.02
2022-12-15T00:59:42.675Z,27.75
2022-12-15T01:02:03.151Z,27.02
2022-12-15T01:04:23.627Z,28.70
2022-12-15T01:06:43.830Z,29.02
2022-12-15T01:09:04.062Z,28.95
2022-12-15T01:11:24.309Z,27.15
2022-12-15T01:13:49.567Z,25.67
2022-12-15T01:16:10.437Z,28.70
2022-12-15T01:18:30.850Z,28.05
2022-12-15T01:20:39.733Z,26.23
2022-12-15T01:22:49.603Z,28.50
2022-12-15T01:24:57.398Z,28.33
2022-12-15T01:27:05.738Z,26.55
2022-12-15T01:29:16.551Z,30.33
2022-12-15T01:31:27.648Z,25.75
2022-12-15T01:33:35.589Z,28.05
2022-12-15T01:35:43.886Z,27.73
2022-12-15T01:37:51.787Z,29.08
2022-12-15T01:40:12.152Z,29.63
2022-12-15T01:42:20.324Z,28.35
2022-12-15T01:44:30.926Z,27.40
2022-12-15T01:46:40.290Z,28.77
2022-12-15T01:48:52.052Z,28.00
2022-12-15T01:51:07.444Z,29.40
2022-12-15T01:53:27.972Z,29.27
2022-12-15T01:55:36.682Z,29.33
2022-12-15T01:57:46.474Z,28.35
2022-12-15T02:00:00.847Z,29.15
2022-12-15T02:02:08.959Z,28.13
2022-12-15T02:04:18.109Z,28.90
2022-12-15T02:06:29.301Z,29.63
2022-12-15T02:08:37.475Z,29.13
2022-12-15T02:11:01.212Z,28.30
2022-12-15T02:13:18.965Z,29.58
2022-12-15T02:15:36.724Z,28.25
2022-12-15T02:17:54.296Z,28.38
2022-12-15T02:20:29.161Z,30.08
2022-12-15T02:22:54.668Z,28.17
2022-12-15T02:25:29.637Z,28.75
2022-12-15T02:27:56.886Z,27.70
2022-12-15T02:30:24.826Z,27.23
2022-12-15T02:32:35.377Z,28.50
2022-12-15T02:34:48.306Z,30.08
2022-12-15T02:37:01.512Z,28.23
2022-12-15T02:39:10.169Z,29.00
2022-12-15T02:41:48.884Z,30.15
2022-12-15T02:43:56.775Z,28.38
2022-12-15T02:46:22.165Z,29.02
2022-12-15T02:48:39.977Z,27.63
2022-12-15T02:51:04.197Z,29.38
2022-12-15T02:53:35.426Z,29.00
2022-12-15T02:55:55.401Z,29.90
2022-12-15T02:58:09.526Z,29.23
2022-12-15T03:00:18.793Z,29.35
2022-12-15T03:02:34.458Z,29.65
2022-12-15T03:04:45.650Z,31.95
2022-12-15T03:07:01.099Z,30.65
2022-12-15T03:09:09.418Z,29.83
2022-12-15T03:11:19.253Z,31.00
2022-12-15T03:13:27.182Z,28.75
2022-12-15T03:15:35.983Z,31.98
2022-12-15T03:17:46.481Z,29.83
2022-12-15T03:19:55.367Z,31.15
2022-12-15T03:22:03.116Z,30.63
2022-12-15T03:24:11.363Z,31.13
2022-12-15T03:26:21.864Z,30.33
2022-12-15T03:28:29.938Z,32.25
2022-12-15T03:30:38.326Z,32.53
2022-12-15T03:32:50.272Z,30.20
2022-12-15T03:35:01.365Z,30.42
2022-12-15T03:37:09.828Z,32.05
2022-12-15T03:39:24.151Z,29.10
2022-12-15T03:41:32.348Z,30.10
2022-12-15T03:43:40.526Z,32.35
2022-12-15T03:45:49.763Z,31.52
2022-12-15T03:48:00.724Z,31.50
2022-12-15T03:50:09.491Z,32.95
2022-12-15T03:52:17.419Z,30.55
2022-12-15T03:54:26.269Z,31.35
2022-12-15T03:56:34.197Z,29.13
2022-12-15T03:58:41.958Z,32.28
2022-12-15T04:00:52.242Z,31.33
2022-12-15T04:03:04.791Z,32.25
2022-12-15T04:05:19.937Z,30.80
2022-12-15T04:07:27.736Z,28.08
2022-12-15T04:09:35.828Z,31.38
2022-12-15T04:11:44.710Z,30.75
2022-12-15T04:13:53.233Z,31.30
2022-12-15T04:16:05.634Z,31.17
2022-12-15T04:18:16.378Z,30.67
2022-12-15T04:20:23.153Z,29.90
2022-12-15T04:22:30.908Z,30.27
2022-12-15T04:24:51.104Z,28.83
2022-12-15T04:27:11.608Z,30.10
2022-12-15T04:29:31.760Z,30.23
2022-12-15T04:31:52.019Z,30.40
2022-12-15T04:34:19.122Z,30.73
2022-12-15T04:36:39.785Z,29.67
2022-12-15T04:39:00.261Z,31.55
2022-12-15T04:41:21.172Z,30.08
2022-12-15T04:43:43.212Z,30.05
2022-12-15T04:46:03.530Z,30.88
2022-12-15T04:48:25.520Z,32.03
2022-12-15T04:50:48.714Z,31.50
2022-12-15T04:53:14.925Z,29.45
2022-12-15T04:55:35.860Z,30.08
2022-12-15T04:57:56.279Z,29.33
2022-12-15T05:00:17.329Z,29.75
2022-12-15T05:02:38.072Z,30.00
2022-12-15T05:04:58.484Z,30.30
2022-12-15T05:07:21.536Z,30.55
2022-12-15T05:09:42.047Z,30.23
2022-12-15T05:12:02.339Z,28.95
2022-12-15T05:14:22.628Z,30.10
2022-12-15T05:16:42.960Z,32.10
2022-12-15T05:19:03.426Z,32.00
2022-12-15T05:21:23.952Z,31.05
2022-12-15T05:23:58.102Z,31.60
2022-12-15T05:26:18.688Z,30.35
2022-12-15T05:28:39.233Z,29.42
2022-12-15T05:30:59.967Z,30.48
2022-12-15T05:33:08.976Z,28.75
2022-12-15T05:35:17.031Z,29.60
2022-12-15T05:37:25.042Z,32.05
2022-12-15T05:39:36.768Z,30.48
2022-12-15T05:41:45.322Z,32.05
2022-12-15T05:43:56.336Z,30.88
2022-12-15T05:46:06.207Z,30.80
2022-12-15T05:48:14.795Z,28.02
2022-12-15T05:50:23.810Z,30.73
2022-12-15T05:52:31.682Z,30.10
2022-12-15T05:54:42.572Z,30.45
2022-12-15T05:56:52.296Z,30.63
2022-12-15T05:59:00.487Z,29.90
2022-12-15T06:01:10.040Z,28.50
2022-12-15T06:03:18.797Z,29.08
2022-12-15T06:05:26.761Z,29.55
2022-12-15T06:07:34.823Z,31.35
2022-12-15T06:09:45.441Z,31.35
2022-12-15T06:11:53.938Z,28.63
2022-12-15T06:14:01.823Z,29.67
2022-12-15T06:16:16.921Z,29.95
2022-12-15T06:18:25.759Z,29.95
2022-12-15T06:20:36.751Z,32.13
2022-12-15T06:22:49.900Z,30.80
2022-12-15T06:25:01.074Z,29.70
2022-12-15T06:27:09.199Z,29.15
2022-12-15T06:29:19.370Z,29.08
2022-12-15T06:31:28.933Z,31.77
2022-12-15T06:33:37.519Z,28.33
2022-12-15T06:35:45.886Z,29.80
2022-12-15T06:37:53.905Z,29.27
2022-12-15T06:40:05.782Z,29.35
2022-12-15T06:42:14.905Z,30.58
2022-12-15T06:44:23.847Z,30.15
2022-12-15T06:46:35.059Z,30.33
2022-12-15T06:48:45.172Z,30.08
2022-12-15T06:50:53.992Z,31.08
2022-12-15T06:53:02.910Z,31.17
2022-12-15T06:55:14.303Z,30.13
2022-12-15T06:57:22.236Z,28.95
2022-12-15T06:59:30.186Z,32.90
2022-12-15T07:01:39.094Z,33.28
2022-12-15T07:03:48.147Z,31.83
2022-12-15T07:06:05.647Z,31.08
2022-12-15T07:08:15.085Z,30.92
2022-12-15T07:10:27.128Z,32.17
2022-12-15T07:12:34.999Z,30.45
2022-12-15T07:14:44.791Z,31.30
2022-12-15T07:17:00.392Z,29.70
2022-12-15T07:19:08.914Z,30.40
2022-12-15T07:21:17.346Z,31.88
2022-12-15T07:23:46.015Z,31.35
2022-12-15T07:25:56.161Z,30.85
2022-12-15T07:28:04.670Z,30.63
2022-12-15T07:30:16.082Z,32.45
2022-12-15T07:32:26.108Z,28.95
2022-12-15T07:34:35.233Z,30.40
2022-12-15T07:36:48.544Z,31.50
2022-12-15T07:39:04.946Z,31.45
2022-12-15T07:41:15.353Z,29.77
2022-12-15T07:43:24.431Z,31.95
2022-12-15T07:45:33.320Z,31.73
2022-12-15T07:47:42.816Z,33.05
2022-12-15T07:49:51.004Z,31.60
2022-12-15T07:51:59.435Z,34.30
2022-12-15T07:54:07.561Z,33.28
2022-12-15T07:56:18.179Z,32.55
2022-12-15T07:58:26.462Z,32.45
2022-12-15T08:00:34.353Z,32.15
2022-12-15T08:02:44.174Z,31.88
2022-12-15T08:04:54.347Z,35.65
2022-12-15T08:07:02.720Z,30.33
2022-12-15T08:09:10.898Z,28.95
2022-12-15T08:11:25.069Z,30.88
2022-12-15T08:14:01.325Z,29.58
2022-12-15T08:16:01.637Z,36.05
2022-12-15T08:18:11.024Z,34.97
2022-12-15T08:20:19.325Z,36.90
2022-12-15T08:22:27.384Z,35.60
2022-12-15T08:24:35.380Z,33.58
2022-12-15T08:26:49.950Z,33.22
2022-12-15T08:29:11.833Z,31.10
2022-12-15T08:31:29.037Z,32.60
2022-12-15T08:33:38.675Z,31.40
2022-12-15T08:35:56.856Z,31.73
2022-12-15T08:38:05.877Z,34.05
2022-12-15T08:40:15.327Z,31.73
2022-12-15T08:42:27.019Z,30.25
2022-12-15T08:44:36.659Z,31.35
2022-12-15T08:46:44.865Z,30.55
2022-12-15T08:48:56.645Z,33.00
2022-12-15T08:51:06.322Z,29.60
2022-12-15T08:53:30.834Z,28.67
2022-12-15T08:55:39.531Z,31.23
2022-12-15T08:57:50.664Z,31.17
2022-12-15T08:59:58.482Z,29.08
2022-12-15T09:02:15.675Z,31.00
2022-12-15T09:04:24.093Z,29.77
2022-12-15T09:06:34.040Z,30.55
2022-12-15T09:08:41.999Z,30.23
2022-12-15T09:10:52.405Z,30.58
2022-12-15T09:13:03.761Z,31.73
2022-12-15T09:15:14.375Z,28.63
2022-12-15T09:17:22.395Z,28.70
2022-12-15T09:19:30.275Z,30.08
2022-12-15T09:21:45.027Z,34.63
2022-12-15T09:23:55.600Z,34.30
2022-12-15T09:26:03.930Z,31.38
2022-12-15T09:28:14.992Z,28.98
2022-12-15T09:30:23.247Z,29.67
2022-12-15T09:32:31.732Z,30.05
2022-12-15T09:34:40.238Z,30.48
2022-12-15T09:36:48.562Z,31.10
2022-12-15T09:38:57.460Z,30.13
2022-12-15T09:41:12.272Z,26.98
2022-12-15T09:43:34.988Z,29.92
2022-12-15T09:45:49.230Z,28.63
2022-12-15T09:48:02.455Z,27.42
2022-12-15T09:50:17.281Z,28.50
2022-12-15T09:52:29.297Z,30.88
2022-12-15T09:54:37.612Z,28.67
2022-12-15T09:56:53.794Z,28.10
2022-12-15T09:59:16.189Z,28.30
2022-12-15T10:01:32.229Z,28.70
2022-12-15T10:03:53.708Z,29.17
2022-12-15T10:06:20.041Z,28.90
2022-12-15T10:08:33.861Z,32.97
2022-12-15T10:10:50.172Z,30.13
2022-12-15T10:13:03.590Z,29.63
2022-12-15T10:15:23.113Z,29.98
2022-12-15T10:17:40.838Z,27.80
2022-12-15T10:19:56.605Z,29.00
2022-12-15T10:22:04.636Z,27.35
2022-12-15T10:26:57.859Z,28.10
2022-12-15T10:29:15.944Z,28.10
2022-12-15T10:31:36.824Z,27.23
2022-12-15T10:33:50.147Z,28.88
2022-12-15T10:35:59.489Z,30.02
2022-12-15T10:38:30.861Z,27.85
2022-12-15T10:40:57.473Z,27.23
2022-12-15T10:43:29.560Z,26.42
2022-12-15T10:45:44.052Z,26.90
2022-12-15T10:48:02.847Z,27.92
2022-12-15T10:50:27.861Z,27.92
2022-12-15T10:52:43.774Z,26.88
2022-12-15T10:54:54.373Z,26.83
2022-12-15T10:57:06.567Z,28.52
2022-12-15T10:59:31.854Z,28.15
2022-12-15T11:01:41.151Z,28.45
2022-12-15T11:03:55.009Z,29.70
2022-12-15T11:06:03.159Z,27.92
2022-12-15T11:08:19.363Z,27.15
2022-12-15T11:10:52.998Z,27.27
2022-12-15T11:13:10.745Z,28.52
2022-12-15T11:15:50.780Z,28.73
2022-12-15T11:18:05.902Z,25.80
2022-12-15T11:20:25.676Z,28.35
2022-12-15T11:22:42.702Z,28.42
2022-12-15T11:25:16.830Z,29.50
2022-12-15T11:27:31.355Z,29.33
2022-12-15T11:30:00.362Z,27.35
2022-12-15T11:32:08.535Z,27.17
2022-12-15T11:34:21.270Z,28.45
2022-12-15T11:36:54.159Z,26.02
2022-12-15T11:39:12.281Z,28.38
2022-12-15T11:41:37.408Z,24.83
2022-12-15T11:44:06.251Z,25.10
2022-12-15T11:46:27.314Z,24.92
2022-12-15T11:48:45.200Z,25.48
2022-12-15T11:50:58.658Z,24.85
2022-12-15T11:53:45.133Z,23.13
2022-12-15T11:56:12.597Z,23.35
2022-12-15T11:58:36.443Z,23.42
2022-12-15T12:01:04.294Z,25.35
2022-12-15T12:03:29.867Z,24.67
2022-12-15T12:05:57.943Z,24.40
2022-12-15T12:08:23.619Z,24.80
2022-12-15T12:10:41.199Z,24.50
2022-12-15T12:13:00.293Z,25.77
2022-12-15T12:15:27.902Z,26.60
2022-12-15T12:17:45.223Z,24.10
2022-12-15T12:19:57.653Z,24.63
2022-12-15T12:22:10.549Z,25.77
2022-12-15T12:24:26.765Z,25.33
2022-12-15T12:26:41.764Z,25.77
2022-12-15T12:28:59.166Z,26.35
2022-12-15T12:31:13.908Z,28.00
2022-12-15T12:33:34.782Z,26.67
2022-12-15T12:35:49.233Z,25.92
2022-12-15T12:38:04.038Z,25.67
2022-12-15T12:40:23.133Z,23.85
2022-12-15T12:42:44.474Z,25.75
2022-12-15T12:44:57.954Z,26.60
2022-12-15T12:47:19.116Z,26.65
2022-12-15T12:49:34.893Z,27.25
2022-12-15T12:51:46.445Z,23.50
2022-12-15T12:53:57.613Z,23.85
2022-12-15T12:56:07.097Z,22.33
2022-12-15T12:58:37.002Z,22.90
2022-12-15T13:01:08.133Z,22.35
2022-12-15T13:03:23.610Z,22.85
2022-12-15T13:05:36.267Z,22.50
2022-12-15T13:07:44.399Z,23.42
2022-12-15T13:10:15.737Z,23.30
2022-12-15T13:12:52.256Z,23.15
2022-12-15T13:15:02.061Z,21.65
2022-12-15T13:17:27.649Z,24.08
2022-12-15T13:20:11.042Z,21.98
2022-12-15T13:22:28.487Z,24.08
2022-12-15T13:24:39.525Z,22.20
2022-12-15T13:26:48.780Z,21.15
2022-12-15T13:28:59.726Z,20.80
2022-12-15T13:31:30.324Z,21.85
2022-12-15T13:33:47.964Z,21.60
2022-12-15T13:35:56.644Z,22.63
2022-12-15T13:38:07.573Z,23.23
2022-12-15T13:40:33.269Z,23.40
2022-12-15T13:42:52.980Z,23.80
2022-12-15T13:45:18.311Z,23.88
2022-12-15T13:47:30.881Z,23.95
2022-12-15T13:53:08.727Z,23.20
2022-12-15T13:55:03.909Z,22.08
2022-12-15T13:57:15.725Z,23.90
2022-12-15T13:59:32.923Z,23.80
2022-12-15T14:01:41.533Z,23.40
2022-12-15T14:04:00.696Z,25.25
2022-12-15T14:06:18.627Z,22.75
2022-12-15T14:08:29.067Z,22.85
2022-12-15T14:10:42.701Z,22.80
2022-12-15T14:12:54.717Z,22.65
2022-12-15T14:15:07.334Z,21.90
2022-12-15T14:17:19.711Z,23.52
2022-12-15T14:19:28.455Z,21.70
2022-12-15T14:21:43.040Z,22.92
2022-12-15T14:24:36.571Z,23.02
2022-12-15T14:26:19.926Z,21.60
2022-12-15T14:28:34.292Z,22.23
2022-12-15T14:30:43.955Z,24.27
2022-12-15T14:32:56.805Z,22.23
2022-12-15T14:35:04.911Z,23.20
2022-12-15T14:37:21.998Z,23.90
2022-12-15T14:39:40.111Z,23.92
2022-12-15T14:41:51.480Z,23.27
2022-12-15T14:44:31.345Z,23.88
2022-12-15T14:46:32.563Z,22.48
2022-12-15T14:48:46.108Z,21.35
2022-12-15T14:50:55.327Z,24.23
2022-12-15T14:53:15.446Z,23.00
2022-12-15T14:55:37.199Z,22.35
2022-12-15T14:57:48.463Z,24.70
2022-12-15T14:59:56.823Z,22.85
2022-12-15T15:02:15.680Z,23.63
2022-12-15T15:03:09.975Z,28.40
2022-12-15T15:03:10.905Z,23.77
2022-12-15T15:04:29.369Z,25.27
2022-12-15T15:06:43.588Z,24.30
2022-12-15T15:09:22.893Z,24.85
2022-12-15T15:11:35.818Z,23.45
2022-12-15T15:13:44.189Z,25.25
2022-12-15T15:15:56.957Z,24.73
2022-12-15T15:18:05.622Z,24.98
2022-12-15T15:20:21.997Z,25.50
2022-12-15T15:22:40.859Z,23.85
2022-12-15T15:24:54.435Z,27.90
2022-12-15T15:27:27.129Z,24.85
2022-12-15T15:29:43.250Z,26.60
2022-12-15T15:31:56.479Z,26.05
2022-12-15T15:34:07.500Z,25.77
2022-12-15T15:36:15.910Z,24.80
2022-12-15T15:38:27.314Z,26.63
2022-12-15T15:40:38.163Z,24.52
2022-12-15T15:42:49.295Z,25.98
2022-12-15T15:44:57.211Z,25.70
2022-12-15T15:47:05.691Z,24.40
2022-12-15T15:49:20.300Z,24.92
2022-12-15T15:51:32.282Z,25.27
2022-12-15T15:53:44.413Z,24.67
2022-12-15T15:55:57.339Z,24.50
2022-12-15T15:58:05.409Z,23.60
2022-12-15T16:00:21.535Z,23.90
2022-12-15T16:02:29.743Z,23.55
2022-12-15T16:04:40.870Z,25.40
2022-12-15T16:06:52.560Z,25.13
2022-12-15T16:09:02.929Z,23.42
2022-12-15T16:11:17.193Z,22.30
2022-12-15T16:13:32.374Z,24.10
2022-12-15T16:15:40.960Z,24.08
2022-12-15T16:17:53.501Z,25.45
2022-12-15T16:20:01.312Z,24.35
2022-12-15T16:22:11.503Z,23.17
2022-12-15T16:24:21.708Z,24.50
2022-12-15T16:26:37.274Z,23.25
2022-12-15T16:28:45.403Z,24.70
2022-12-15T16:30:53.688Z,22.52
2022-12-15T16:33:03.483Z,23.27
2022-12-15T16:35:12.044Z,23.20
2022-12-15T16:37:34.818Z,22.52
2022-12-15T16:39:46.430Z,23.33
2022-12-15T16:41:58.744Z,23.52
2022-12-15T16:44:10.060Z,23.67
2022-12-15T16:46:20.397Z,23.30
2022-12-15T16:48:28.487Z,23.05
2022-12-15T16:50:39.580Z,21.52
2022-12-15T16:52:54.807Z,22.15
2022-12-15T16:55:03.295Z,21.48
2022-12-15T16:57:16.536Z,23.25
2022-12-15T16:59:33.406Z,21.15
2022-12-15T17:01:43.248Z,21.63
2022-12-15T17:03:53.564Z,21.65
2022-12-15T17:06:04.869Z,22.55
2022-12-15T17:08:19.189Z,20.85
2022-12-15T17:10:30.108Z,20.55
2022-12-15T17:12:45.425Z,21.30
2022-12-15T17:14:53.201Z,24.70
2022-12-15T17:17:02.301Z,22.33
2022-12-15T17:19:10.172Z,20.30
2022-12-15T17:21:25.895Z,23.13
2022-12-15T17:23:36.600Z,21.90
2022-12-15T17:26:19.946Z,21.50
2022-12-15T17:28:23.575Z,23.35
2022-12-15T17:30:33.212Z,22.48
2022-12-15T17:32:41.084Z,21.05
2022-12-15T17:34:48.953Z,21.63
2022-12-15T17:36:57.873Z,22.52
2022-12-15T17:39:06.380Z,21.20
2022-12-15T17:41:42.273Z,20.75
2022-12-15T17:44:04.358Z,21.48
2022-12-15T17:46:19.442Z,21.77
2022-12-15T17:48:28.156Z,21.05
2022-12-15T17:50:36.257Z,23.35
2022-12-15T17:52:46.579Z,22.05
2022-12-15T17:54:59.984Z,22.15
2022-12-15T17:57:07.838Z,21.63
2022-12-15T17:59:21.415Z,21.15
2022-12-15T18:01:31.047Z,22.83
2022-12-15T18:03:39.094Z,21.98
2022-12-15T18:05:47.989Z,21.98
2022-12-15T18:07:59.264Z,22.55
2022-12-15T18:10:09.301Z,25.25
2022-12-15T18:12:23.953Z,31.10
2022-12-15T18:14:34.686Z,24.30
2022-12-15T18:16:48.696Z,23.40
2022-12-15T18:18:56.599Z,23.45
2022-12-15T18:21:16.573Z,22.80
2022-12-15T18:23:30.775Z,23.33
2022-12-15T18:25:39.127Z,24.08
2022-12-15T18:27:47.944Z,25.92
2022-12-15T18:29:59.093Z,27.60
2022-12-15T18:32:07.159Z,22.65
2022-12-15T18:34:18.507Z,26.30
2022-12-15T18:36:27.481Z,25.40
2022-12-15T18:38:36.587Z,23.48
2022-12-15T18:40:44.563Z,24.42
2022-12-15T18:42:54.254Z,26.25
2022-12-15T18:45:08.406Z,25.20
2022-12-15T18:47:19.964Z,27.58
2022-12-15T18:49:28.001Z,25.58
2022-12-15T18:51:39.131Z,23.98
2022-12-15T18:53:49.188Z,26.33
2022-12-15T18:55:59.945Z,25.15
2022-12-15T18:58:12.319Z,26.10
2022-12-15T19:00:31.041Z,29.15
2022-12-15T19:02:39.083Z,27.05
2022-12-15T19:04:47.039Z,24.45
2022-12-15T19:06:55.169Z,26.42
2022-12-15T19:09:03.608Z,23.92
2022-12-15T19:11:15.734Z,24.75
2022-12-15T19:13:26.794Z,24.48
2022-12-15T19:15:38.683Z,24.17
2022-12-15T19:18:04.757Z,24.75
2022-12-15T19:20:32.458Z,25.30
2022-12-15T19:22:41.232Z,26.27
2022-12-15T19:24:59.774Z,24.92
2022-12-15T19:27:14.174Z,24.20
2022-12-15T19:29:24.867Z,22.88
2022-12-15T19:31:36.828Z,26.42
2022-12-15T19:33:45.960Z,24.13
2022-12-15T19:35:55.846Z,26.08
2022-12-15T19:38:07.762Z,23.45
2022-12-15T19:40:23.719Z,23.23
2022-12-15T19:42:34.053Z,22.60
2022-12-15T19:44:52.808Z,23.38
2022-12-15T19:47:03.231Z,24.38
2022-12-15T19:49:11.603Z,22.25
2022-12-15T19:51:25.097Z,22.80
2022-12-15T19:53:36.241Z,22.60
2022-12-15T19:55:44.800Z,23.48
2022-12-15T19:57:52.623Z,24.08
2022-12-15T20:00:01.366Z,21.45
2022-12-15T20:02:19.494Z,23.25
2022-12-15T20:04:29.375Z,22.63
2022-12-15T20:06:45.978Z,23.35
2022-12-15T20:08:56.097Z,21.63
2022-12-15T20:11:04.500Z,22.05
2022-12-15T20:13:16.725Z,24.05
2022-12-15T20:15:29.825Z,22.45
2022-12-15T20:17:47.343Z,29.30
2022-12-15T20:19:58.594Z,26.80
2022-12-15T20:22:07.425Z,23.92
2022-12-15T20:24:20.889Z,24.05
2022-12-15T20:26:32.089Z,24.27
2022-12-15T20:28:46.183Z,25.33
2022-12-15T20:30:57.502Z,24.60
2022-12-15T20:33:10.082Z,26.05
2022-12-15T20:35:19.784Z,22.92
2022-12-15T20:37:32.013Z,23.05
2022-12-15T20:39:40.398Z,26.50
2022-12-15T20:41:49.571Z,23.40
2022-12-15T20:44:27.807Z,24.75
2022-12-15T20:46:38.531Z,23.20
2022-12-15T20:48:49.632Z,22.90
2022-12-15T20:50:57.947Z,23.40
2022-12-15T20:53:15.651Z,23.98
2022-12-15T20:55:23.961Z,22.50
2022-12-15T20:57:33.667Z,25.23
2022-12-15T20:59:41.836Z,22.98
2022-12-15T21:01:52.680Z,21.13
2022-12-15T21:04:26.098Z,25.10
2022-12-15T21:06:34.219Z,24.10
2022-12-15T21:08:54.332Z,22.15
2022-12-15T21:11:22.101Z,21.95
2022-12-15T21:13:49.161Z,24.30
2022-12-15T21:15:57.350Z,22.67
2022-12-15T21:18:46.676Z,23.13
2022-12-15T21:21:02.702Z,23.65
2022-12-15T21:23:22.984Z,21.90
2022-12-15T21:25:30.877Z,23.17
2022-12-15T21:27:38.827Z,23.58
2022-12-15T21:29:52.372Z,23.60
2022-12-15T21:32:00.823Z,23.02
2022-12-15T21:34:09.574Z,23.83
2022-12-15T21:36:21.892Z,22.05
2022-12-15T21:38:35.852Z,22.77
2022-12-15T21:40:47.427Z,25.10
2022-12-15T21:42:57.619Z,25.85
2022-12-15T21:45:06.032Z,25.95
2022-12-15T21:47:49.144Z,25.38
2022-12-15T21:49:55.152Z,26.65
2022-12-15T21:52:07.601Z,25.52
2022-12-15T21:54:22.082Z,26.70
2022-12-15T21:56:34.201Z,23.63
2022-12-15T21:59:05.880Z,24.90
2022-12-15T22:01:17.536Z,26.40
2022-12-15T22:03:25.579Z,26.98
2022-12-15T22:05:34.517Z,26.73
2022-12-15T22:07:45.395Z,27.63
2022-12-15T22:09:53.644Z,27.77
2022-12-15T22:12:02.249Z,27.20
2022-12-15T22:14:21.438Z,27.13
2022-12-15T22:16:30.007Z,27.48
2022-12-15T22:18:38.087Z,29.67
2022-12-15T22:20:48.210Z,28.20
2022-12-15T22:22:58.902Z,26.23
2022-12-15T22:25:08.666Z,28.50
2022-12-15T22:27:21.806Z,27.65
2022-12-15T22:29:31.747Z,27.63
2022-12-15T22:31:42.036Z,28.92
2022-12-15T22:33:50.917Z,27.95
2022-12-15T22:35:59.584Z,27.70
2022-12-15T22:38:10.824Z,28.00
2022-12-15T22:40:20.600Z,28.15
2022-12-15T22:42:28.429Z,27.30
2022-12-15T22:44:39.780Z,28.85
2022-12-15T22:46:48.228Z,27.40
2022-12-15T22:48:57.048Z,28.17
2022-12-15T22:51:04.952Z,27.33
2022-12-15T22:53:19.386Z,28.95
2022-12-15T22:55:29.543Z,30.73
2022-12-15T22:57:37.199Z,29.70
2022-12-15T23:00:05.779Z,28.35
2022-12-15T23:02:15.869Z,27.38
2022-12-15T23:04:24.040Z,30.10
2022-12-15T23:06:32.253Z,29.13
2022-12-15T23:08:42.773Z,29.95
2022-12-15T23:11:03.364Z,29.48
2022-12-15T23:13:13.944Z,30.02
2022-12-15T23:15:34.203Z,32.03
2022-12-15T23:17:41.997Z,30.48
2022-12-15T23:19:50.987Z,30.35
2022-12-15T23:21:59.547Z,32.28
2022-12-15T23:24:11.208Z,31.85
2022-12-15T23:26:22.276Z,31.58
2022-12-15T23:28:30.693Z,33.22
2022-12-15T23:30:38.695Z,31.88
2022-12-15T23:32:46.695Z,33.83
2022-12-15T23:34:54.853Z,34.10
2022-12-15T23:37:02.837Z,34.70
2022-12-15T23:39:17.752Z,32.83
2022-12-15T23:41:26.803Z,32.25
2022-12-15T23:43:36.413Z,34.63
2022-12-15T23:45:45.139Z,34.03
2022-12-15T23:47:53.024Z,34.40
2022-12-15T23:50:02.323Z,33.00
2022-12-15T23:52:10.878Z,33.22
2022-12-15T23:54:21.696Z,35.65
2022-12-15T23:56:30.781Z,35.03
2022-12-15T23:58:39.450Z,35.28
